Time,TemperatureF,DewpointF,PressureIn,WindDirection,WindDirectionDegrees,WindSpeedMPH,WindSpeedGustMPH,Humidity,HourlyPrecipIn,Conditions,Clouds,dailyrainin,SoftwareType,DateUTC
2013-05-19 00:01:00,49.6,39.5,30.37,WNW,294,0.0,0.0,68,0.00,,SKC,0.00,VWS V13.01,2013-05-19 04:01:00,
2013-05-19 00:06:00,49.6,39.9,30.37,WNW,294,0.0,0.0,69,0.00,,SKC,0.00,VWS V13.01,2013-05-19 04:06:00,
2013-05-19 00:11:00,49.2,39.5,30.37,WNW,294,0.0,0.0,69,0.00,,SKC,0.00,VWS V13.01,2013-05-19 04:11:00,
2013-05-19 00:16:00,49.2,39.5,30.37,WNW,294,0.0,0.0,69,0.00,,SKC,0.00,VWS V13.01,2013-05-19 04:16:00,
2013-05-19 00:21:00,49.2,39.8,30.37,WNW,294,0.0,0.0,70,0.00,,SKC,0.00,VWS V13.01,2013-05-19 04:21:00,
2013-05-19 00:26:00,49.1,39.8,30.37,WNW,294,0.0,0.0,70,0.00,,SKC,0.00,VWS V13.01,2013-05-19 04:26:00,
2013-05-19 00:31:00,49.1,39.8,30.37,WNW,294,0.0,0.0,70,0.00,,SKC,0.00,VWS V13.01,2013-05-19 04:31:00,
2013-05-19 00:36:00,48.9,39.6,30.38,WNW,294,0.0,0.0,70,0.00,,SKC,0.00,VWS V13.01,2013-05-19 04:36:00,
2013-05-19 00:41:00,48.9,39.9,30.38,WNW,294,0.0,0.0,71,0.00,,SKC,0.00,VWS V13.01,2013-05-19 04:41:00,
2013-05-19 00:46:00,48.9,39.9,30.38,WNW,294,0.0,0.0,71,0.00,,SKC,0.00,VWS V13.01,2013-05-19 04:46:00,
2013-05-19 00:51:00,49.1,40.1,30.38,WNW,294,0.0,0.0,71,0.00,,SKC,0.00,VWS V13.01,2013-05-19 04:51:00,
2013-05-19 00:56:00,49.4,40.8,30.38,SSE,158,0.0,0.0,72,0.00,,SKC,0.00,VWS V13.01,2013-05-19 04:56:00,
2013-05-19 01:01:00,49.8,41.5,30.37,SSW,204,0.0,0.0,73,0.00,,SKC,0.00,VWS V13.01,2013-05-19 05:01:00,
2013-05-19 01:06:00,50.9,42.9,30.38,SSW,204,0.0,0.0,74,0.00,,SKC,0.00,VWS V13.01,2013-05-19 05:06:00,
2013-05-19 01:11:00,52.3,43.9,30.37,SSW,204,2.0,2.2,73,0.00,,SKC,0.00,VWS V13.01,2013-05-19 05:11:00,
2013-05-19 01:16:00,52.8,44.4,30.37,SSW,204,0.0,0.0,73,0.00,,SKC,0.00,VWS V13.01,2013-05-19 05:16:00,
2013-05-19 01:21:00,53.4,44.6,30.37,South,181,2.4,2.4,72,0.00,,SKC,0.00,VWS V13.01,2013-05-19 05:21:00,
2013-05-19 01:26:00,53.7,44.5,30.38,SSE,158,0.0,0.0,71,0.00,,SKC,0.00,VWS V13.01,2013-05-19 05:26:00,
2013-05-19 01:31:00,53.9,44.7,30.37,SSW,204,0.0,0.0,71,0.00,,SKC,0.00,VWS V13.01,2013-05-19 05:31:00,
2013-05-19 01:36:00,53.9,44.7,30.37,SSE,158,2.2,2.2,71,0.00,,SKC,0.00,VWS V13.01,2013-05-19 05:36:00,
2013-05-19 01:41:00,54.1,44.9,30.38,South,181,0.0,0.0,71,0.00,,SKC,0.00,VWS V13.01,2013-05-19 05:41:00,
2013-05-19 01:46:00,54.3,45.1,30.38,SSW,204,0.0,0.0,71,0.00,,SKC,0.00,VWS V13.01,2013-05-19 05:46:00,
2013-05-19 01:51:00,54.5,45.3,30.38,SSW,204,0.8,0.8,71,0.00,,SKC,0.00,VWS V13.01,2013-05-19 05:51:00,
2013-05-19 01:56:00,55.0,45.8,30.38,South,181,3.5,3.5,71,0.00,,SKC,0.00,VWS V13.01,2013-05-19 05:56:00,
2013-05-19 02:01:00,55.0,45.8,30.38,SSW,204,0.0,0.0,71,0.00,,SKC,0.00,VWS V13.01,2013-05-19 06:01:00,
2013-05-19 02:06:00,55.2,46.0,30.38,SSW,204,0.0,0.0,71,0.00,,SKC,0.00,VWS V13.01,2013-05-19 06:06:00,
2013-05-19 02:11:00,55.2,45.6,30.38,SSE,158,0.0,0.0,70,0.00,,SKC,0.00,VWS V13.01,2013-05-19 06:11:00,
2013-05-19 02:16:00,55.5,45.9,30.38,SSW,204,4.6,4.6,70,0.00,,SKC,0.00,VWS V13.01,2013-05-19 06:16:00,
2013-05-19 02:21:00,55.7,46.1,30.38,SSW,204,0.0,0.0,70,0.00,,SKC,0.00,VWS V13.01,2013-05-19 06:21:00,
2013-05-19 02:26:00,55.7,46.1,30.38,South,181,0.0,0.0,70,0.00,,SKC,0.00,VWS V13.01,2013-05-19 06:26:00,
2013-05-19 02:31:00,55.9,46.3,30.38,SSW,204,0.0,0.0,70,0.00,,SKC,0.00,VWS V13.01,2013-05-19 06:31:00,
2013-05-19 02:37:00,55.9,46.3,30.38,South,181,0.0,0.0,70,0.00,,SKC,0.00,VWS V13.01,2013-05-19 06:37:00,
2013-05-19 02:42:00,55.9,45.9,30.38,South,181,1.1,1.1,69,0.00,,SKC,0.00,VWS V13.01,2013-05-19 06:42:00,
2013-05-19 02:47:00,55.9,45.9,30.38,South,181,0.0,0.0,69,0.00,,SKC,0.00,VWS V13.01,2013-05-19 06:47:00,
2013-05-19 02:52:00,55.5,45.5,30.37,SSE,158,1.5,1.5,69,0.00,,SKC,0.00,VWS V13.01,2013-05-19 06:52:00,
2013-05-19 02:57:00,55.4,45.4,30.38,SSW,204,0.0,0.0,69,0.00,,SKC,0.00,VWS V13.01,2013-05-19 06:57:00,
2013-05-19 03:02:00,55.2,45.2,30.38,SE,136,0.0,0.0,69,0.00,,SKC,0.00,VWS V13.01,2013-05-19 07:02:00,
2013-05-19 03:07:00,55.2,45.2,30.38,South,181,0.0,0.0,69,0.00,,SKC,0.00,VWS V13.01,2013-05-19 07:07:00,
2013-05-19 03:12:00,55.0,45.0,30.38,SSW,204,0.0,0.0,69,0.00,,SKC,0.00,VWS V13.01,2013-05-19 07:12:00,
2013-05-19 03:17:00,54.8,44.8,30.38,South,181,0.4,0.4,69,0.00,,SKC,0.00,VWS V13.01,2013-05-19 07:17:00,
2013-05-19 03:22:00,54.6,45.0,30.38,SE,136,0.0,0.0,70,0.00,,SKC,0.00,VWS V13.01,2013-05-19 07:22:00,
2013-05-19 03:27:00,54.6,45.0,30.38,South,181,0.0,0.0,70,0.00,,SKC,0.00,VWS V13.01,2013-05-19 07:27:00,
2013-05-19 03:32:00,54.6,45.0,30.39,SSW,204,0.0,0.0,70,0.00,,SKC,0.00,VWS V13.01,2013-05-19 07:32:00,
2013-05-19 03:37:00,54.6,45.4,30.39,SSW,204,0.0,0.0,71,0.00,,SKC,0.00,VWS V13.01,2013-05-19 07:37:00,
2013-05-19 03:42:00,55.0,45.8,30.39,SSW,204,0.0,0.0,71,0.00,,SKC,0.00,VWS V13.01,2013-05-19 07:42:00,
2013-05-19 03:47:00,55.0,45.8,30.39,South,181,0.8,0.8,71,0.00,,SKC,0.00,VWS V13.01,2013-05-19 07:47:00,
2013-05-19 03:52:00,54.8,45.6,30.39,South,181,0.4,0.4,71,0.00,,SKC,0.00,VWS V13.01,2013-05-19 07:52:00,
2013-05-19 03:57:00,54.8,45.6,30.39,SSE,158,1.1,1.1,71,0.00,,SKC,0.00,VWS V13.01,2013-05-19 07:57:00,
2013-05-19 04:02:00,54.6,45.4,30.39,South,181,0.0,0.0,71,0.00,,SKC,0.00,VWS V13.01,2013-05-19 08:02:00,
2013-05-19 04:07:00,54.6,45.4,30.39,WSW,248,0.0,0.0,71,0.00,,SKC,0.00,VWS V13.01,2013-05-19 08:07:00,
2013-05-19 04:12:00,54.5,45.7,30.39,SSE,158,0.0,0.0,72,0.00,,SKC,0.00,VWS V13.01,2013-05-19 08:12:00,
2013-05-19 04:17:00,54.5,45.7,30.39,SSE,158,0.0,0.0,72,0.00,,SKC,0.00,VWS V13.01,2013-05-19 08:17:00,
2013-05-19 04:22:00,54.5,45.7,30.39,SSW,204,0.0,0.0,72,0.00,,SKC,0.00,VWS V13.01,2013-05-19 08:22:00,
2013-05-19 04:27:00,54.3,45.5,30.39,SSE,158,0.0,0.0,72,0.00,,SKC,0.00,VWS V13.01,2013-05-19 08:27:00,
2013-05-19 04:32:00,54.3,45.5,30.39,SSW,204,0.0,0.0,72,0.00,,SKC,0.00,VWS V13.01,2013-05-19 08:32:00,
2013-05-19 04:37:00,54.3,45.5,30.39,South,181,0.0,0.0,72,0.00,,SKC,0.00,VWS V13.01,2013-05-19 08:37:00,
2013-05-19 04:42:00,54.3,45.5,30.40,South,181,2.6,2.6,72,0.00,,SKC,0.00,VWS V13.01,2013-05-19 08:42:00,
2013-05-19 04:47:00,54.5,45.7,30.40,SSE,158,2.9,2.9,72,0.00,,SKC,0.00,VWS V13.01,2013-05-19 08:47:00,
2013-05-19 04:52:00,54.3,45.5,30.40,NNE,24,0.0,0.0,72,0.00,,SKC,0.00,VWS V13.01,2013-05-19 08:52:00,
2013-05-19 04:57:00,54.3,45.5,30.40,SSE,158,0.0,0.0,72,0.00,,SKC,0.00,VWS V13.01,2013-05-19 08:57:00,
2013-05-19 05:02:00,54.3,45.5,30.40,SSE,158,0.0,1.7,72,0.00,,SKC,0.00,VWS V13.01,2013-05-19 09:02:00,
2013-05-19 05:07:00,54.3,45.5,30.40,SSW,204,0.0,0.0,72,0.00,,SKC,0.00,VWS V13.01,2013-05-19 09:07:00,
2013-05-19 05:12:00,54.3,45.5,30.40,SSW,204,0.0,0.0,72,0.00,,SKC,0.00,VWS V13.01,2013-05-19 09:12:00,
2013-05-19 05:17:00,54.1,44.9,30.40,SW,226,0.0,0.0,71,0.00,,SKC,0.00,VWS V13.01,2013-05-19 09:17:00,
2013-05-19 05:22:00,54.1,44.9,30.40,SW,226,0.0,0.0,71,0.00,,SKC,0.00,VWS V13.01,2013-05-19 09:22:00,
2013-05-19 05:27:00,54.1,44.9,30.40,SW,226,0.0,0.0,71,0.00,,SKC,0.00,VWS V13.01,2013-05-19 09:27:00,
2013-05-19 05:32:00,53.9,44.7,30.40,ENE,68,0.0,0.0,71,0.00,,SKC,0.00,VWS V13.01,2013-05-19 09:32:00,
2013-05-19 05:37:00,53.7,44.9,30.40,NE,46,0.0,0.0,72,0.00,,SKC,0.00,VWS V13.01,2013-05-19 09:37:00,
2013-05-19 05:42:00,53.7,44.9,30.40,ENE,68,0.0,0.0,72,0.00,,SKC,0.00,VWS V13.01,2013-05-19 09:42:00,
2013-05-19 05:47:00,53.4,44.6,30.40,SW,226,0.0,0.0,72,0.00,,SKC,0.00,VWS V13.01,2013-05-19 09:47:00,
2013-05-19 05:52:00,53.2,44.4,30.40,ESE,114,0.0,0.0,72,0.00,,SKC,0.00,VWS V13.01,2013-05-19 09:52:00,
2013-05-19 05:57:00,53.2,44.4,30.40,ESE,114,0.0,0.0,72,0.00,,SKC,0.00,VWS V13.01,2013-05-19 09:57:00,
2013-05-19 06:02:00,53.2,44.4,30.40,ESE,114,0.0,0.0,72,0.00,,SKC,0.00,VWS V13.01,2013-05-19 10:02:00,
2013-05-19 06:07:00,53.2,44.4,30.41,ESE,114,0.0,0.0,72,0.00,,SKC,0.00,VWS V13.01,2013-05-19 10:07:00,
2013-05-19 06:12:00,53.2,44.8,30.41,SSE,158,0.0,0.0,73,0.00,,SKC,0.00,VWS V13.01,2013-05-19 10:12:00,
2013-05-19 06:18:00,53.2,44.8,30.41,SSE,158,0.0,0.0,73,0.00,,SKC,0.00,VWS V13.01,2013-05-19 10:18:00,
2013-05-19 06:23:00,53.6,45.2,30.40,SSE,158,0.0,0.0,73,0.00,,SKC,0.00,VWS V13.01,2013-05-19 10:23:00,
2013-05-19 06:28:00,53.9,45.1,30.41,SW,226,0.0,0.0,72,0.00,,SKC,0.00,VWS V13.01,2013-05-19 10:28:00,
2013-05-19 06:33:00,54.6,45.8,30.41,SSE,158,0.0,0.0,72,0.00,,SKC,0.00,VWS V13.01,2013-05-19 10:33:00,
2013-05-19 06:38:00,55.0,46.2,30.40,SE,136,0.0,0.0,72,0.00,,SKC,0.00,VWS V13.01,2013-05-19 10:38:00,
2013-05-19 06:43:00,55.2,46.3,30.41,SW,226,0.0,0.0,72,0.00,,SKC,0.00,VWS V13.01,2013-05-19 10:43:00,
2013-05-19 06:48:00,55.2,46.0,30.41,South,181,0.0,0.0,71,0.00,,SKC,0.00,VWS V13.01,2013-05-19 10:48:00,
2013-05-19 06:53:00,55.0,45.8,30.41,SE,136,0.0,0.0,71,0.00,,SKC,0.00,VWS V13.01,2013-05-19 10:53:00,
2013-05-19 06:58:00,54.8,45.6,30.41,WSW,248,0.0,0.0,71,0.00,,SKC,0.00,VWS V13.01,2013-05-19 10:58:00,
2013-05-19 07:03:00,54.8,46.0,30.41,South,181,0.0,0.0,72,0.00,,SKC,0.00,VWS V13.01,2013-05-19 11:03:00,
2013-05-19 07:08:00,54.6,45.8,30.41,SSE,158,0.0,0.0,72,0.00,,SKC,0.00,VWS V13.01,2013-05-19 11:08:00,
2013-05-19 07:13:00,54.8,46.0,30.41,SSW,204,0.0,0.0,72,0.00,,SKC,0.00,VWS V13.01,2013-05-19 11:13:00,
2013-05-19 07:18:00,54.8,46.0,30.41,SSW,204,0.0,0.0,72,0.00,,SKC,0.00,VWS V13.01,2013-05-19 11:18:00,
2013-05-19 07:23:00,55.2,46.3,30.41,South,181,0.0,0.0,72,0.00,,SKC,0.00,VWS V13.01,2013-05-19 11:23:00,
2013-05-19 07:28:00,55.9,47.0,30.41,SSE,158,0.0,0.0,72,0.00,,SKC,0.00,VWS V13.01,2013-05-19 11:28:00,
2013-05-19 07:33:00,56.4,47.5,30.41,SE,136,0.0,0.0,72,0.00,,SKC,0.00,VWS V13.01,2013-05-19 11:33:00,
2013-05-19 07:38:00,57.5,48.2,30.41,South,181,0.0,0.0,71,0.00,,SKC,0.00,VWS V13.01,2013-05-19 11:38:00,
2013-05-19 07:43:00,58.6,49.2,30.41,South,181,2.0,2.0,71,0.00,,SKC,0.00,VWS V13.01,2013-05-19 11:43:00,
2013-05-19 07:48:00,59.3,49.5,30.41,SSW,204,0.0,0.0,70,0.00,,SKC,0.00,VWS V13.01,2013-05-19 11:48:00,
2013-05-19 07:53:00,60.4,50.2,30.41,South,181,0.0,0.6,69,0.00,,SKC,0.00,VWS V13.01,2013-05-19 11:53:00,
2013-05-19 07:58:00,61.8,50.7,30.41,SSE,158,2.0,2.0,67,0.00,,SKC,0.00,VWS V13.01,2013-05-19 11:58:00,
2013-05-19 08:03:00,62.4,50.9,30.41,WNW,294,0.0,0.0,66,0.00,,SKC,0.00,VWS V13.01,2013-05-19 12:03:00,
2013-05-19 08:08:00,62.7,51.2,30.41,SSE,158,0.0,0.0,66,0.00,,SKC,0.00,VWS V13.01,2013-05-19 12:08:00,
2013-05-19 08:13:00,63.1,51.6,30.41,South,181,0.8,0.8,66,0.00,,SKC,0.00,VWS V13.01,2013-05-19 12:13:00,
2013-05-19 08:18:00,63.5,52.0,30.41,South,181,3.1,3.1,66,0.00,,SKC,0.00,VWS V13.01,2013-05-19 12:18:00,
2013-05-19 08:23:00,64.0,51.6,30.41,South,181,0.0,0.0,64,0.00,,SKC,0.00,VWS V13.01,2013-05-19 12:23:00,
2013-05-19 08:28:00,64.2,51.8,30.42,South,181,0.0,0.2,64,0.00,,SKC,0.00,VWS V13.01,2013-05-19 12:28:00,
2013-05-19 08:33:00,64.5,52.1,30.41,South,181,8.2,8.2,64,0.00,,SKC,0.00,VWS V13.01,2013-05-19 12:33:00,
2013-05-19 08:38:00,64.9,52.5,30.41,SSW,204,0.0,3.8,64,0.00,,SKC,0.00,VWS V13.01,2013-05-19 12:38:00,
2013-05-19 08:43:00,65.6,52.7,30.42,SW,226,2.2,5.3,63,0.00,,SKC,0.00,VWS V13.01,2013-05-19 12:43:00,
2013-05-19 08:48:00,65.8,52.9,30.42,SSE,158,1.1,1.1,63,0.00,,SKC,0.00,VWS V13.01,2013-05-19 12:48:00,
2013-05-19 08:53:00,66.0,52.6,30.42,SW,226,0.0,0.0,62,0.00,,SKC,0.00,VWS V13.01,2013-05-19 12:53:00,
2013-05-19 08:58:00,66.3,52.9,30.42,SSW,204,0.0,2.6,62,0.00,,SKC,0.00,VWS V13.01,2013-05-19 12:58:00,
2013-05-19 09:03:00,66.3,52.5,30.42,ESE,114,0.0,0.0,61,0.00,,SKC,0.00,VWS V13.01,2013-05-19 13:03:00,
2013-05-19 09:08:00,66.0,52.2,30.42,South,181,0.0,0.0,61,0.00,,SKC,0.00,VWS V13.01,2013-05-19 13:08:00,
2013-05-19 09:13:00,66.0,52.2,30.41,WSW,248,0.0,1.3,61,0.00,,SKC,0.00,VWS V13.01,2013-05-19 13:13:00,
2013-05-19 09:18:00,66.0,52.2,30.41,South,181,0.8,0.8,61,0.00,,SKC,0.00,VWS V13.01,2013-05-19 13:18:00,
2013-05-19 09:23:00,66.3,52.5,30.41,SSE,158,0.0,0.0,61,0.00,,SKC,0.00,VWS V13.01,2013-05-19 13:23:00,
2013-05-19 09:28:00,66.3,52.5,30.41,SSW,204,0.0,0.0,61,0.00,,SKC,0.00,VWS V13.01,2013-05-19 13:28:00,
2013-05-19 09:33:00,66.7,52.8,30.41,NNW,338,0.0,0.0,61,0.00,,SKC,0.00,VWS V13.01,2013-05-19 13:33:00,
2013-05-19 09:38:00,66.9,52.6,30.41,NNW,338,0.0,0.0,60,0.00,,SKC,0.00,VWS V13.01,2013-05-19 13:38:00,
2013-05-19 09:43:00,67.2,52.9,30.41,SSE,158,0.0,1.5,60,0.00,,SKC,0.00,VWS V13.01,2013-05-19 13:43:00,
2013-05-19 09:48:00,67.6,52.8,30.41,SSW,204,0.0,0.0,59,0.00,,SKC,0.00,VWS V13.01,2013-05-19 13:48:00,
2013-05-19 09:53:00,67.8,53.0,30.41,South,181,1.5,1.5,59,0.00,,SKC,0.00,VWS V13.01,2013-05-19 13:53:00,
2013-05-19 09:58:00,68.3,53.4,30.41,East,91,0.0,0.6,59,0.00,,SKC,0.00,VWS V13.01,2013-05-19 13:58:00,
2013-05-19 10:03:00,68.5,53.2,30.41,ESE,114,1.1,1.1,58,0.00,,SKC,0.00,VWS V13.01,2013-05-19 14:03:00,
2013-05-19 10:08:00,68.7,53.3,30.41,South,181,0.0,0.0,58,0.00,,SKC,0.00,VWS V13.01,2013-05-19 14:08:00,
2013-05-19 10:13:00,69.4,54.0,30.41,ENE,68,1.1,1.1,58,0.00,,SKC,0.00,VWS V13.01,2013-05-19 14:13:00,
2013-05-19 10:18:00,69.9,54.9,30.41,SSE,158,0.0,0.0,59,0.00,,SKC,0.00,VWS V13.01,2013-05-19 14:18:00,
2013-05-19 10:23:00,70.5,54.5,30.41,SE,136,4.4,4.4,57,0.00,,SKC,0.00,VWS V13.01,2013-05-19 14:23:00,
2013-05-19 10:28:00,70.8,54.3,30.41,SSE,158,2.2,3.1,56,0.00,,SKC,0.00,VWS V13.01,2013-05-19 14:28:00,
2013-05-19 10:33:00,71.2,54.2,30.40,West,271,2.2,2.2,55,0.00,,SKC,0.00,VWS V13.01,2013-05-19 14:33:00,
2013-05-19 10:38:00,71.2,54.2,30.40,SSE,158,2.6,2.6,55,0.00,,SKC,0.00,VWS V13.01,2013-05-19 14:38:00,
2013-05-19 10:43:00,71.4,54.4,30.40,WNW,294,0.0,0.0,55,0.00,,SKC,0.00,VWS V13.01,2013-05-19 14:43:00,
2013-05-19 10:48:00,71.4,53.9,30.40,SE,136,2.2,2.2,54,0.00,,SKC,0.00,VWS V13.01,2013-05-19 14:48:00,
2013-05-19 10:53:00,71.7,54.2,30.40,South,181,1.3,1.3,54,0.00,,SKC,0.00,VWS V13.01,2013-05-19 14:53:00,
2013-05-19 10:58:00,72.1,54.6,30.40,South,181,2.4,2.4,54,0.00,,SKC,0.00,VWS V13.01,2013-05-19 14:58:00,
2013-05-19 11:03:00,72.3,54.7,30.40,NNE,24,0.0,0.0,54,0.00,,SKC,0.00,VWS V13.01,2013-05-19 15:03:00,
2013-05-19 11:08:00,72.5,54.9,30.40,NE,46,1.7,1.7,54,0.00,,SKC,0.00,VWS V13.01,2013-05-19 15:08:00,
2013-05-19 11:13:00,72.6,55.0,30.40,ESE,114,0.8,2.9,54,0.00,,SKC,0.00,VWS V13.01,2013-05-19 15:13:00,
2013-05-19 11:18:00,73.0,54.9,30.40,South,181,0.0,0.0,53,0.00,,SKC,0.00,VWS V13.01,2013-05-19 15:18:00,
2013-05-19 11:23:00,73.2,55.1,30.39,North,1,2.4,2.4,53,0.00,,SKC,0.00,VWS V13.01,2013-05-19 15:23:00,
2013-05-19 11:28:00,72.8,54.7,30.39,NW,316,5.3,5.3,53,0.00,,SKC,0.00,VWS V13.01,2013-05-19 15:28:00,
2013-05-19 11:33:00,72.6,54.5,30.39,WSW,248,0.0,0.0,53,0.00,,SKC,0.00,VWS V13.01,2013-05-19 15:33:00,
2013-05-19 11:38:00,72.6,55.0,30.39,SSE,158,1.5,1.5,54,0.00,,SKC,0.00,VWS V13.01,2013-05-19 15:38:00,
2013-05-19 11:43:00,73.0,54.9,30.39,SSW,204,1.3,1.3,53,0.00,,SKC,0.00,VWS V13.01,2013-05-19 15:43:00,
2013-05-19 11:48:00,73.2,55.1,30.40,South,181,3.1,3.1,53,0.00,,SKC,0.00,VWS V13.01,2013-05-19 15:48:00,
2013-05-19 11:53:00,73.2,55.1,30.39,SW,226,0.0,5.1,53,0.00,,SKC,0.00,VWS V13.01,2013-05-19 15:53:00,
2013-05-19 11:58:00,73.4,55.2,30.39,WSW,248,0.0,0.0,53,0.00,,SKC,0.00,VWS V13.01,2013-05-19 15:58:00,
2013-05-19 12:03:00,73.5,55.3,30.39,SSW,204,3.1,3.1,53,0.00,,SKC,0.00,VWS V13.01,2013-05-19 16:03:00,
2013-05-19 12:08:00,73.5,55.3,30.39,NNE,24,2.4,2.4,53,0.00,,SKC,0.00,VWS V13.01,2013-05-19 16:08:00,
2013-05-19 12:13:00,73.2,55.6,30.38,SSW,204,0.0,0.0,54,0.00,,SKC,0.00,VWS V13.01,2013-05-19 16:13:00,
2013-05-19 12:18:00,73.4,55.8,30.38,SSW,204,0.0,0.0,54,0.00,,SKC,0.00,VWS V13.01,2013-05-19 16:18:00,
2013-05-19 12:23:00,73.4,55.8,30.38,SSE,158,1.7,1.7,54,0.00,,SKC,0.00,VWS V13.01,2013-05-19 16:23:00,
2013-05-19 12:28:00,73.5,56.4,30.38,SSE,158,2.2,6.4,55,0.00,,SKC,0.00,VWS V13.01,2013-05-19 16:28:00,
2013-05-19 12:33:00,73.5,56.4,30.37,SSE,158,2.9,2.9,55,0.00,,SKC,0.00,VWS V13.01,2013-05-19 16:33:00,
2013-05-19 12:38:00,73.7,56.0,30.37,ENE,68,0.0,3.1,54,0.00,,SKC,0.00,VWS V13.01,2013-05-19 16:38:00,
2013-05-19 12:43:00,73.5,55.9,30.37,SSE,158,4.0,4.0,54,0.00,,SKC,0.00,VWS V13.01,2013-05-19 16:43:00,
2013-05-19 12:48:00,73.2,55.6,30.37,SSE,158,3.8,3.8,54,0.00,,SKC,0.00,VWS V13.01,2013-05-19 16:48:00,
2013-05-19 12:53:00,72.8,55.7,30.37,SSW,204,2.9,2.9,55,0.00,,SKC,0.00,VWS V13.01,2013-05-19 16:53:00,
2013-05-19 12:58:00,72.6,55.5,30.38,North,1,1.5,1.5,55,0.00,,SKC,0.00,VWS V13.01,2013-05-19 16:58:00,
2013-05-19 13:03:00,72.1,55.1,30.38,South,181,1.7,1.7,55,0.00,,SKC,0.00,VWS V13.01,2013-05-19 17:03:00,
2013-05-19 13:08:00,71.4,54.9,30.38,SSE,158,2.2,3.8,56,0.00,,SKC,0.00,VWS V13.01,2013-05-19 17:08:00,
2013-05-19 13:13:00,71.2,55.2,30.38,SSE,158,3.8,3.8,57,0.00,,SKC,0.00,VWS V13.01,2013-05-19 17:13:00,
2013-05-19 13:18:00,70.5,54.5,30.38,South,181,2.4,2.4,57,0.00,,SKC,0.00,VWS V13.01,2013-05-19 17:18:00,
2013-05-19 13:23:00,69.9,54.0,30.38,WSW,248,1.7,4.2,57,0.00,,SKC,0.00,VWS V13.01,2013-05-19 17:23:00,
2013-05-19 13:28:00,69.6,54.2,30.38,WSW,248,0.0,0.0,58,0.00,,SKC,0.00,VWS V13.01,2013-05-19 17:28:00,
2013-05-19 13:33:00,69.6,54.2,30.38,NE,46,0.0,0.0,58,0.00,,SKC,0.00,VWS V13.01,2013-05-19 17:33:00,
2013-05-19 13:38:00,69.0,54.1,30.37,ESE,114,0.6,0.6,59,0.00,,SKC,0.00,VWS V13.01,2013-05-19 17:38:00,
2013-05-19 13:43:00,68.7,53.8,30.37,SSW,204,4.2,4.2,59,0.00,,SKC,0.00,VWS V13.01,2013-05-19 17:43:00,
2013-05-19 13:48:00,68.3,53.9,30.37,South,181,1.7,1.7,60,0.00,,SKC,0.00,VWS V13.01,2013-05-19 17:48:00,
2013-05-19 13:53:00,68.3,53.9,30.37,SE,136,3.8,3.8,60,0.00,,SKC,0.00,VWS V13.01,2013-05-19 17:53:00,
2013-05-19 13:58:00,68.3,54.3,30.37,North,1,2.4,2.4,61,0.00,,SKC,0.00,VWS V13.01,2013-05-19 17:58:00,
2013-05-19 14:03:00,68.0,54.1,30.37,SSE,158,2.4,2.4,61,0.00,,SKC,0.00,VWS V13.01,2013-05-19 18:03:00,
2013-05-19 14:08:00,67.6,53.7,30.37,NNW,338,2.9,2.9,61,0.00,,SKC,0.00,VWS V13.01,2013-05-19 18:08:00,
2013-05-19 14:13:00,67.6,54.1,30.37,SSW,204,0.0,0.0,62,0.00,,SKC,0.00,VWS V13.01,2013-05-19 18:13:00,
2013-05-19 14:18:00,67.6,54.1,30.37,SE,136,4.9,4.9,62,0.00,,SKC,0.00,VWS V13.01,2013-05-19 18:18:00,
2013-05-19 14:23:00,67.2,53.8,30.37,NNE,24,3.1,5.3,62,0.00,,SKC,0.00,VWS V13.01,2013-05-19 18:23:00,
2013-05-19 14:28:00,67.2,54.2,30.37,SE,136,0.0,0.0,63,0.00,,SKC,0.00,VWS V13.01,2013-05-19 18:28:00,
2013-05-19 14:33:00,67.1,53.7,30.38,WNW,294,1.5,1.5,62,0.00,,SKC,0.00,VWS V13.01,2013-05-19 18:33:00,
2013-05-19 14:38:00,67.1,53.7,30.37,ESE,114,2.4,2.4,62,0.00,,SKC,0.00,VWS V13.01,2013-05-19 18:38:00,
2013-05-19 14:43:00,67.1,53.7,30.37,SSE,158,2.0,2.0,62,0.00,,SKC,0.00,VWS V13.01,2013-05-19 18:43:00,
2013-05-19 14:48:00,67.1,53.7,30.36,SSE,158,5.3,5.3,62,0.00,,SKC,0.00,VWS V13.01,2013-05-19 18:48:00,
2013-05-19 14:53:00,67.2,54.2,30.36,South,181,3.5,3.5,63,0.00,,SKC,0.00,VWS V13.01,2013-05-19 18:53:00,
2013-05-19 14:58:00,67.2,54.2,30.36,SSE,158,1.7,1.7,63,0.00,,SKC,0.00,VWS V13.01,2013-05-19 18:58:00,
2013-05-19 15:03:00,67.1,54.1,30.36,SSW,204,2.9,2.9,63,0.00,,SKC,0.00,VWS V13.01,2013-05-19 19:03:00,
2013-05-19 15:08:00,66.5,53.5,30.36,SSW,204,1.3,1.3,63,0.00,,SKC,0.00,VWS V13.01,2013-05-19 19:08:00,
2013-05-19 15:13:00,66.3,53.3,30.35,SSE,158,0.0,0.0,63,0.00,,SKC,0.00,VWS V13.01,2013-05-19 19:13:00,
2013-05-19 15:18:00,65.8,53.3,30.35,West,271,0.0,0.0,64,0.00,,SKC,0.00,VWS V13.01,2013-05-19 19:18:00,
2013-05-19 15:23:00,65.3,53.2,30.36,NNW,338,0.0,0.0,65,0.00,,SKC,0.00,VWS V13.01,2013-05-19 19:23:00,
2013-05-19 15:28:00,65.1,53.1,30.36,WSW,248,0.0,0.0,65,0.00,,SKC,0.00,VWS V13.01,2013-05-19 19:28:00,
2013-05-19 15:33:00,64.7,53.1,30.36,SSW,204,5.8,5.8,66,0.00,,SKC,0.00,VWS V13.01,2013-05-19 19:33:00,
2013-05-19 15:38:00,64.2,52.6,30.36,SE,136,0.8,6.0,66,0.00,,SKC,0.00,VWS V13.01,2013-05-19 19:38:00,
2013-05-19 15:43:00,64.0,52.4,30.36,SSE,158,0.0,0.0,66,0.00,,SKC,0.00,VWS V13.01,2013-05-19 19:43:00,
2013-05-19 15:48:00,63.6,52.5,30.36,South,181,1.3,1.3,67,0.00,,SKC,0.00,VWS V13.01,2013-05-19 19:48:00,
2013-05-19 15:53:00,63.3,52.6,30.36,SSW,204,0.0,0.0,68,0.00,,SKC,0.00,VWS V13.01,2013-05-19 19:53:00,
2013-05-19 15:58:00,63.1,52.4,30.36,South,181,0.0,0.0,68,0.00,,SKC,0.00,VWS V13.01,2013-05-19 19:58:00,
2013-05-19 16:03:00,63.1,52.8,30.36,South,181,0.0,0.0,69,0.00,,SKC,0.00,VWS V13.01,2013-05-19 20:03:00,
2013-05-19 16:08:00,63.1,52.8,30.35,SSE,158,0.0,0.0,69,0.00,,SKC,0.00,VWS V13.01,2013-05-19 20:08:00,
2013-05-19 16:13:00,63.3,53.0,30.36,South,181,2.0,2.0,69,0.00,,SKC,0.00,VWS V13.01,2013-05-19 20:13:00,
2013-05-19 16:18:00,63.1,53.2,30.35,SSE,158,0.0,0.0,70,0.00,,SKC,0.00,VWS V13.01,2013-05-19 20:18:00,
2013-05-19 16:23:00,62.9,53.0,30.35,South,181,0.0,0.0,70,0.00,,SKC,0.00,VWS V13.01,2013-05-19 20:23:00,
2013-05-19 16:28:00,62.9,53.4,30.35,NNW,338,1.1,1.1,71,0.00,,SKC,0.00,VWS V13.01,2013-05-19 20:28:00,
2013-05-19 16:33:00,62.7,53.5,30.35,South,181,0.0,0.0,72,0.00,,SKC,0.00,VWS V13.01,2013-05-19 20:33:00,
2013-05-19 16:38:00,62.4,53.3,30.35,South,181,0.0,0.8,72,0.00,,SKC,0.00,VWS V13.01,2013-05-19 20:38:00,
2013-05-19 16:43:00,62.2,53.8,30.35,South,181,0.0,0.0,74,0.00,,SKC,0.00,VWS V13.01,2013-05-19 20:43:00,
2013-05-19 16:48:00,62.0,53.6,30.35,SSE,158,0.6,0.6,74,0.00,,SKC,0.00,VWS V13.01,2013-05-19 20:48:00,
2013-05-19 16:53:00,61.8,53.4,30.35,WSW,248,0.0,1.7,74,0.00,,SKC,0.00,VWS V13.01,2013-05-19 20:53:00,
2013-05-19 16:58:00,61.8,53.8,30.35,South,181,0.0,0.0,75,0.00,,SKC,0.00,VWS V13.01,2013-05-19 20:58:00,
2013-05-19 17:03:00,61.8,53.8,30.35,NNE,24,1.5,1.5,75,0.00,,SKC,0.00,VWS V13.01,2013-05-19 21:03:00,
2013-05-19 17:08:00,61.7,54.1,30.35,SSW,204,0.0,0.0,76,0.02,,SKC,0.02,VWS V13.01,2013-05-19 21:08:00,
2013-05-19 17:13:00,61.5,53.9,30.35,SSE,158,0.0,0.0,76,0.02,,SKC,0.02,VWS V13.01,2013-05-19 21:13:00,
2013-05-19 17:18:00,61.3,53.7,30.34,South,181,1.5,1.5,76,0.02,,SKC,0.02,VWS V13.01,2013-05-19 21:18:00,
2013-05-19 17:23:00,61.1,53.5,30.34,SSE,158,0.0,0.0,76,0.02,,SKC,0.02,VWS V13.01,2013-05-19 21:23:00,
2013-05-19 17:28:00,60.9,53.7,30.33,South,181,0.0,0.0,77,0.02,,SKC,0.02,VWS V13.01,2013-05-19 21:28:00,
2013-05-19 17:33:00,60.6,53.4,30.33,NE,46,0.0,0.0,77,0.04,,SKC,0.04,VWS V13.01,2013-05-19 21:33:00,
2013-05-19 17:38:00,60.4,53.5,30.33,ESE,114,0.0,0.0,78,0.04,,SKC,0.04,VWS V13.01,2013-05-19 21:38:00,
2013-05-19 17:43:00,60.2,53.3,30.33,SW,226,0.0,0.0,78,0.04,,SKC,0.04,VWS V13.01,2013-05-19 21:43:00,
2013-05-19 17:48:00,60.0,53.1,30.33,SSE,158,0.0,0.0,78,0.04,,SKC,0.04,VWS V13.01,2013-05-19 21:48:00,
2013-05-19 17:53:00,59.9,53.4,30.33,NE,46,0.0,0.0,79,0.04,,SKC,0.04,VWS V13.01,2013-05-19 21:53:00,
2013-05-19 17:58:00,59.7,53.2,30.33,SSW,204,0.0,0.0,79,0.04,,SKC,0.04,VWS V13.01,2013-05-19 21:58:00,
2013-05-19 18:03:00,59.5,53.0,30.33,South,181,0.0,0.0,79,0.02,,SKC,0.04,VWS V13.01,2013-05-19 22:03:00,
2013-05-19 18:08:00,59.3,53.1,30.32,SSE,158,0.0,0.0,80,0.02,,SKC,0.04,VWS V13.01,2013-05-19 22:08:00,
2013-05-19 18:13:00,59.1,52.9,30.32,SSE,158,0.0,0.0,80,0.04,,SKC,0.06,VWS V13.01,2013-05-19 22:13:00,
2013-05-19 18:18:00,59.0,52.8,30.32,SE,136,0.0,0.0,80,0.04,,SKC,0.06,VWS V13.01,2013-05-19 22:18:00,
2013-05-19 18:23:00,58.8,52.7,30.32,South,181,0.0,0.0,80,0.04,,SKC,0.06,VWS V13.01,2013-05-19 22:23:00,
2013-05-19 18:28:00,58.8,53.0,30.31,South,181,0.0,0.0,81,0.02,,SKC,0.06,VWS V13.01,2013-05-19 22:28:00,
2013-05-19 18:33:00,58.8,53.0,30.31,South,181,0.0,0.0,81,0.02,,SKC,0.06,VWS V13.01,2013-05-19 22:33:00,
2013-05-19 18:38:00,58.8,53.0,30.31,SSE,158,0.0,0.0,81,0.04,,SKC,0.08,VWS V13.01,2013-05-19 22:38:00,
2013-05-19 18:43:00,58.8,53.0,30.31,SSW,204,0.0,0.0,81,0.04,,SKC,0.08,VWS V13.01,2013-05-19 22:43:00,
2013-05-19 18:48:00,58.8,53.0,30.31,WSW,248,0.0,0.0,81,0.04,,SKC,0.08,VWS V13.01,2013-05-19 22:48:00,
2013-05-19 18:53:00,58.8,53.3,30.31,NW,316,0.0,0.0,82,0.04,,SKC,0.08,VWS V13.01,2013-05-19 22:53:00,
2013-05-19 18:58:00,58.6,53.1,30.31,SE,136,0.0,0.0,82,0.04,,SKC,0.08,VWS V13.01,2013-05-19 22:58:00,
2013-05-19 19:03:00,58.2,52.7,30.31,South,181,0.0,0.0,82,0.04,,SKC,0.08,VWS V13.01,2013-05-19 23:03:00,
2013-05-19 19:08:00,58.2,52.7,30.31,SSW,204,0.0,0.0,82,0.06,,SKC,0.10,VWS V13.01,2013-05-19 23:08:00,
2013-05-19 19:13:00,58.1,53.0,30.31,South,181,0.4,0.4,83,0.04,,SKC,0.10,VWS V13.01,2013-05-19 23:13:00,
2013-05-19 19:18:00,57.9,52.8,30.30,South,181,0.0,0.0,83,0.04,,SKC,0.10,VWS V13.01,2013-05-19 23:18:00,
2013-05-19 19:23:00,57.9,52.8,30.30,WSW,248,0.0,0.0,83,0.06,,SKC,0.12,VWS V13.01,2013-05-19 23:23:00,
2013-05-19 19:28:00,57.7,52.6,30.30,South,181,0.0,0.0,83,0.06,,SKC,0.12,VWS V13.01,2013-05-19 23:28:00,
2013-05-19 19:33:00,57.5,52.4,30.30,SSE,158,5.1,5.1,83,0.08,,SKC,0.14,VWS V13.01,2013-05-19 23:33:00,
2013-05-19 19:38:00,57.3,52.2,30.30,SSW,204,1.1,1.1,83,0.06,,SKC,0.14,VWS V13.01,2013-05-19 23:38:00,
2013-05-19 19:43:00,57.3,52.2,30.29,South,181,0.0,0.0,83,0.06,,SKC,0.14,VWS V13.01,2013-05-19 23:43:00,
2013-05-19 19:48:00,57.3,52.5,30.29,SSW,204,0.0,0.0,84,0.06,,SKC,0.14,VWS V13.01,2013-05-19 23:48:00,
2013-05-19 19:53:00,57.0,52.2,30.29,South,181,0.8,0.8,84,0.06,,SKC,0.14,VWS V13.01,2013-05-19 23:53:00,
2013-05-19 19:58:00,57.0,52.2,30.29,SSE,158,0.2,0.2,84,0.08,,SKC,0.16,VWS V13.01,2013-05-19 23:58:00,
2013-05-19 20:03:00,56.8,52.0,30.29,SSW,204,0.0,0.0,84,0.06,,SKC,0.16,VWS V13.01,2013-05-20 00:03:00,
2013-05-19 20:08:00,56.8,52.0,30.29,South,181,1.1,1.1,84,0.06,,SKC,0.16,VWS V13.01,2013-05-20 00:08:00,
2013-05-19 20:13:00,56.8,52.0,30.30,SSW,204,0.0,0.0,84,0.06,,SKC,0.16,VWS V13.01,2013-05-20 00:13:00,
2013-05-19 20:18:00,56.8,52.0,30.30,South,181,1.7,1.7,84,0.04,,SKC,0.16,VWS V13.01,2013-05-20 00:18:00,
2013-05-19 20:23:00,56.4,51.6,30.30,South,181,0.0,0.0,84,0.04,,SKC,0.16,VWS V13.01,2013-05-20 00:23:00,
2013-05-19 20:28:00,56.4,52.0,30.30,South,181,0.0,0.0,85,0.02,,SKC,0.16,VWS V13.01,2013-05-20 00:28:00,
2013-05-19 20:33:00,56.4,52.0,30.30,SE,136,0.0,0.0,85,0.02,,SKC,0.16,VWS V13.01,2013-05-20 00:33:00,
2013-05-19 20:38:00,56.4,52.0,30.30,South,181,0.0,0.0,85,0.02,,SKC,0.16,VWS V13.01,2013-05-20 00:38:00,
2013-05-19 20:43:00,56.4,52.0,30.30,NNE,24,0.6,0.6,85,0.02,,SKC,0.16,VWS V13.01,2013-05-20 00:43:00,
2013-05-19 20:48:00,56.4,52.0,30.30,SSW,204,0.0,0.0,85,0.02,,SKC,0.16,VWS V13.01,2013-05-20 00:48:00,
2013-05-19 20:53:00,56.4,52.0,30.30,South,181,0.0,0.0,85,0.02,,SKC,0.16,VWS V13.01,2013-05-20 00:53:00,
2013-05-19 20:58:00,56.4,52.0,30.30,SSE,158,0.0,0.0,85,0.00,,SKC,0.16,VWS V13.01,2013-05-20 00:58:00,
2013-05-19 21:03:00,56.6,52.2,30.30,South,181,0.0,0.0,85,0.00,,SKC,0.16,VWS V13.01,2013-05-20 01:03:00,
2013-05-19 21:08:00,56.6,52.2,30.30,South,181,0.0,0.0,85,0.00,,SKC,0.16,VWS V13.01,2013-05-20 01:08:00,
2013-05-19 21:13:00,56.6,52.2,30.30,South,181,0.0,0.0,85,0.00,,SKC,0.16,VWS V13.01,2013-05-20 01:13:00,
2013-05-19 21:18:00,56.6,52.2,30.29,SW,226,0.0,0.0,85,0.00,,SKC,0.16,VWS V13.01,2013-05-20 01:18:00,
2013-05-19 21:23:00,56.6,52.2,30.29,SSE,158,0.0,0.0,85,0.02,,SKC,0.18,VWS V13.01,2013-05-20 01:23:00,
2013-05-19 21:28:00,56.6,52.2,30.30,South,181,1.3,1.3,85,0.02,,SKC,0.18,VWS V13.01,2013-05-20 01:28:00,
2013-05-19 21:33:00,56.4,52.0,30.29,South,181,0.0,0.0,85,0.02,,SKC,0.18,VWS V13.01,2013-05-20 01:33:00,
2013-05-19 21:38:00,56.6,52.2,30.29,South,181,1.7,4.0,85,0.02,,SKC,0.18,VWS V13.01,2013-05-20 01:38:00,
2013-05-19 21:43:00,56.4,52.0,30.29,South,181,0.0,0.0,85,0.02,,SKC,0.18,VWS V13.01,2013-05-20 01:43:00,
2013-05-19 21:48:00,56.4,52.0,30.29,SSW,204,4.6,4.6,85,0.02,,SKC,0.18,VWS V13.01,2013-05-20 01:48:00,
2013-05-19 21:53:00,56.6,52.5,30.29,SSE,158,0.0,0.6,86,0.02,,SKC,0.18,VWS V13.01,2013-05-20 01:53:00,
2013-05-19 21:58:00,56.4,52.0,30.29,SSW,204,2.4,2.4,85,0.02,,SKC,0.18,VWS V13.01,2013-05-20 01:58:00,
2013-05-19 22:03:00,56.4,52.3,30.29,SSW,204,0.0,0.0,86,0.02,,SKC,0.18,VWS V13.01,2013-05-20 02:03:00,
2013-05-19 22:08:00,56.6,52.5,30.29,SSE,158,0.0,0.0,86,0.02,,SKC,0.18,VWS V13.01,2013-05-20 02:08:00,
2013-05-19 22:13:00,56.8,52.7,30.29,SSW,204,1.3,1.3,86,0.02,,SKC,0.18,VWS V13.01,2013-05-20 02:13:00,
2013-05-19 22:18:00,56.8,52.7,30.29,South,181,0.0,0.0,86,0.00,,SKC,0.18,VWS V13.01,2013-05-20 02:18:00,
2013-05-19 22:23:00,56.8,52.7,30.28,South,181,0.0,0.0,86,0.00,,SKC,0.18,VWS V13.01,2013-05-20 02:23:00,
2013-05-19 22:28:00,56.8,52.7,30.28,SSE,158,0.0,0.0,86,0.00,,SKC,0.18,VWS V13.01,2013-05-20 02:28:00,
2013-05-19 22:33:00,56.8,52.7,30.28,SSW,204,0.0,0.0,86,0.00,,SKC,0.18,VWS V13.01,2013-05-20 02:33:00,
2013-05-19 22:38:00,56.8,52.7,30.28,SSW,204,0.0,0.0,86,0.00,,SKC,0.18,VWS V13.01,2013-05-20 02:38:00,
2013-05-19 22:43:00,56.8,52.7,30.27,SW,226,4.0,4.0,86,0.00,,SKC,0.18,VWS V13.01,2013-05-20 02:43:00,
2013-05-19 22:48:00,56.8,52.7,30.27,SSE,158,0.0,0.0,86,0.00,,SKC,0.18,VWS V13.01,2013-05-20 02:48:00,
2013-05-19 22:53:00,56.8,52.7,30.27,South,181,0.0,0.0,86,0.00,,SKC,0.18,VWS V13.01,2013-05-20 02:53:00,
2013-05-19 22:58:00,56.8,52.7,30.27,SSE,158,2.0,2.0,86,0.00,,SKC,0.18,VWS V13.01,2013-05-20 02:58:00,
2013-05-19 23:03:00,56.8,52.7,30.27,South,181,2.0,2.0,86,0.00,,SKC,0.18,VWS V13.01,2013-05-20 03:03:00,
2013-05-19 23:08:00,56.8,52.7,30.26,South,181,0.0,0.0,86,0.00,,SKC,0.18,VWS V13.01,2013-05-20 03:08:00,
2013-05-19 23:13:00,56.8,52.7,30.26,South,181,0.0,0.0,86,0.00,,SKC,0.18,VWS V13.01,2013-05-20 03:13:00,
2013-05-19 23:18:00,56.8,52.7,30.26,South,181,0.0,0.0,86,0.00,,SKC,0.18,VWS V13.01,2013-05-20 03:18:00,
2013-05-19 23:24:00,56.8,52.7,30.26,SSE,158,1.1,1.1,86,0.00,,SKC,0.18,VWS V13.01,2013-05-20 03:24:00,
2013-05-19 23:29:00,56.8,52.7,30.26,SSE,158,0.0,0.0,86,0.00,,SKC,0.18,VWS V13.01,2013-05-20 03:29:00,
2013-05-19 23:34:00,56.8,52.7,30.26,South,181,0.0,0.0,86,0.00,,SKC,0.18,VWS V13.01,2013-05-20 03:34:00,
2013-05-19 23:39:00,56.8,52.7,30.25,SSE,158,1.3,1.3,86,0.00,,SKC,0.18,VWS V13.01,2013-05-20 03:39:00,
2013-05-19 23:44:00,56.8,52.7,30.25,South,181,0.0,0.0,86,0.00,,SKC,0.18,VWS V13.01,2013-05-20 03:44:00,
2013-05-19 23:49:00,56.8,53.0,30.25,SSE,158,1.7,1.7,87,0.00,,SKC,0.18,VWS V13.01,2013-05-20 03:49:00,
2013-05-19 23:54:00,56.8,53.0,30.25,South,181,5.1,5.1,87,0.00,,SKC,0.18,VWS V13.01,2013-05-20 03:54:00,
2013-05-19 23:59:00,56.8,53.0,30.25,South,181,0.0,0.0,87,0.02,,SKC,0.20,VWS V13.01,2013-05-20 03:59:00,